createdAt,value
2022-09-30T00:04:33.629Z,25.35
2022-09-30T00:09:40.958Z,25.20
2022-09-30T00:14:48.147Z,25.08
2022-09-30T00:19:55.326Z,24.95
2022-09-30T00:25:02.476Z,24.84
2022-09-30T00:30:09.706Z,24.73
2022-09-30T00:35:20.514Z,24.64
2022-09-30T00:40:24.066Z,24.55
2022-09-30T00:45:31.259Z,24.43
2022-09-30T00:50:38.463Z,24.33
2022-09-30T00:55:45.667Z,24.22
2022-09-30T01:00:53.007Z,24.16
2022-09-30T01:06:00.140Z,24.06
2022-09-30T01:11:08.491Z,24.01
2022-09-30T01:16:14.729Z,24.02
2022-09-30T01:21:21.744Z,23.90
2022-09-30T01:26:29.006Z,23.88
2022-09-30T01:31:36.362Z,23.81
2022-09-30T01:36:43.423Z,23.71
2022-09-30T01:41:50.608Z,23.66
2022-09-30T01:46:57.890Z,23.60
2022-09-30T01:52:04.977Z,23.58
2022-09-30T01:57:12.179Z,23.54
2022-09-30T02:02:19.631Z,23.56
2022-09-30T02:07:26.653Z,23.56
2022-09-30T02:12:33.831Z,23.54
2022-09-30T02:17:41.055Z,23.53
2022-09-30T02:22:48.227Z,23.51
2022-09-30T02:27:55.471Z,23.49
2022-09-30T02:33:02.737Z,23.45
2022-09-30T02:38:09.933Z,23.44
2022-09-30T02:43:17.183Z,23.40
2022-09-30T02:48:24.522Z,23.37
2022-09-30T02:53:31.673Z,23.34
2022-09-30T02:58:38.912Z,23.30
2022-09-30T03:03:46.138Z,23.27
2022-09-30T03:08:53.399Z,23.23
2022-09-30T03:14:00.588Z,23.19
2022-09-30T03:19:07.841Z,23.14
2022-09-30T03:24:15.030Z,23.11
2022-09-30T03:29:22.324Z,23.09
2022-09-30T03:34:29.521Z,23.09
2022-09-30T03:39:36.761Z,23.08
2022-09-30T03:44:43.975Z,23.09
2022-09-30T03:49:51.191Z,23.10
2022-09-30T03:54:58.333Z,23.08
2022-09-30T04:00:05.573Z,23.11
2022-09-30T04:05:12.848Z,23.09
2022-09-30T04:10:20.026Z,23.08
2022-09-30T04:15:27.260Z,23.08
2022-09-30T04:20:34.488Z,23.07
2022-09-30T04:25:41.688Z,23.04
2022-09-30T04:30:48.959Z,23.02
2022-09-30T04:35:56.235Z,23.01
2022-09-30T04:41:03.388Z,22.97
2022-09-30T04:46:10.659Z,22.96
2022-09-30T04:51:17.816Z,22.91
2022-09-30T04:56:25.003Z,22.88
2022-09-30T05:01:32.213Z,22.85
2022-09-30T05:06:39.429Z,22.85
2022-09-30T05:11:46.616Z,22.88
2022-09-30T05:16:53.819Z,22.88
2022-09-30T05:22:01.040Z,22.87
2022-09-30T05:27:08.294Z,22.87
2022-09-30T05:32:15.534Z,22.91
2022-09-30T05:37:22.766Z,22.91
2022-09-30T05:42:29.980Z,22.90
2022-09-30T05:47:37.261Z,22.89
2022-09-30T05:52:44.581Z,22.87
2022-09-30T05:57:51.669Z,22.87
2022-09-30T06:02:58.954Z,22.85
2022-09-30T06:08:06.091Z,22.83
2022-09-30T06:13:13.275Z,22.82
2022-09-30T06:18:20.505Z,22.78
2022-09-30T06:23:27.728Z,22.75
2022-09-30T06:28:34.883Z,22.73
2022-09-30T06:33:42.150Z,22.71
2022-09-30T06:38:49.394Z,22.71
2022-09-30T06:44:10.166Z,22.72
2022-09-30T06:49:12.999Z,22.73
2022-09-30T06:54:11.163Z,22.75
2022-09-30T06:59:18.437Z,22.77
2022-09-30T07:04:25.535Z,22.78
2022-09-30T07:09:32.837Z,22.78
2022-09-30T07:14:39.980Z,22.76
2022-09-30T07:19:47.263Z,22.77
2022-09-30T07:24:54.511Z,22.78
2022-09-30T07:30:10.176Z,22.76
2022-09-30T07:35:08.836Z,22.74
2022-09-30T07:40:16.136Z,22.72
2022-09-30T07:45:23.298Z,22.71
2022-09-30T07:50:30.513Z,22.71
2022-09-30T07:55:37.705Z,22.67
2022-09-30T08:00:45.029Z,22.65
2022-09-30T08:05:52.092Z,22.64
2022-09-30T08:10:59.390Z,22.60
2022-09-30T08:16:06.651Z,22.59
2022-09-30T08:21:13.807Z,22.62
2022-09-30T08:26:21.004Z,22.59
2022-09-30T08:31:28.348Z,22.60
2022-09-30T08:36:35.517Z,22.63
2022-09-30T08:41:42.745Z,22.69
2022-09-30T08:46:52.690Z,22.72
2022-09-30T08:51:57.115Z,22.74
2022-09-30T08:57:04.325Z,22.75
2022-09-30T09:02:15.230Z,22.76
2022-09-30T09:07:18.680Z,22.76
2022-09-30T09:12:25.874Z,22.76
2022-09-30T09:17:33.058Z,22.78
2022-09-30T09:22:40.250Z,22.77
2022-09-30T09:27:47.543Z,22.76
2022-09-30T09:32:54.685Z,22.76
2022-09-30T09:38:01.862Z,22.75
2022-09-30T09:43:09.064Z,22.73
2022-09-30T09:48:16.271Z,22.73
2022-09-30T09:53:23.481Z,22.71
2022-09-30T09:58:30.727Z,22.72
2022-09-30T10:03:37.917Z,22.69
2022-09-30T10:08:45.155Z,22.72
2022-09-30T10:13:52.435Z,22.76
2022-09-30T10:18:59.626Z,22.80
2022-09-30T10:24:06.813Z,22.84
2022-09-30T10:29:14.054Z,22.87
2022-09-30T10:34:21.194Z,22.89
2022-09-30T10:39:28.424Z,22.90
2022-09-30T10:44:35.622Z,22.88
2022-09-30T10:49:42.797Z,22.89
2022-09-30T10:54:49.975Z,22.90
2022-09-30T10:59:57.165Z,22.90
2022-09-30T11:05:04.376Z,22.87
2022-09-30T11:10:11.577Z,22.87
2022-09-30T11:15:18.839Z,22.84
2022-09-30T11:20:26.063Z,22.84
2022-09-30T11:25:33.240Z,22.82
2022-09-30T11:30:40.554Z,22.84
2022-09-30T11:35:47.704Z,22.83
2022-09-30T11:40:54.965Z,22.84
2022-09-30T11:46:02.227Z,22.84
2022-09-30T11:51:09.448Z,22.88
2022-09-30T11:56:16.726Z,22.90
2022-09-30T12:01:24.065Z,22.91
2022-09-30T12:06:31.736Z,22.95
2022-09-30T12:11:38.450Z,22.96
2022-09-30T12:16:45.783Z,22.97
2022-09-30T12:21:53.842Z,22.97
2022-09-30T12:27:01.279Z,22.96
2022-09-30T12:32:08.831Z,22.97
2022-09-30T12:37:15.875Z,22.96
2022-09-30T12:42:23.118Z,22.93
2022-09-30T12:47:30.369Z,22.92
2022-09-30T12:52:37.590Z,22.91
2022-09-30T12:57:44.811Z,22.90
2022-09-30T13:02:52.079Z,22.92
2022-09-30T13:07:59.206Z,22.91
2022-09-30T13:13:06.425Z,22.91
2022-09-30T13:18:13.641Z,22.92
2022-09-30T13:23:20.820Z,22.92
2022-09-30T13:28:28.104Z,22.94
2022-09-30T13:33:35.598Z,22.98
2022-09-30T13:38:42.759Z,23.03
2022-09-30T13:43:49.918Z,23.11
2022-09-30T13:48:57.179Z,23.19
2022-09-30T13:54:04.357Z,23.26
2022-09-30T13:59:11.576Z,23.36
2022-09-30T14:04:18.782Z,23.43
2022-09-30T14:09:25.973Z,23.48
2022-09-30T14:14:33.172Z,23.54
2022-09-30T14:19:40.407Z,23.60
2022-09-30T14:24:47.583Z,23.67
2022-09-30T14:29:54.859Z,23.74
2022-09-30T14:35:02.089Z,23.78
2022-09-30T14:40:09.221Z,23.83
2022-09-30T14:45:16.430Z,23.86
2022-09-30T14:50:23.669Z,23.93
2022-09-30T14:55:30.866Z,23.99
2022-09-30T15:00:38.033Z,24.04
2022-09-30T15:05:45.260Z,24.07
2022-09-30T15:10:52.448Z,24.11
2022-09-30T15:15:59.684Z,24.15
2022-09-30T15:21:06.876Z,24.22
2022-09-30T15:26:14.061Z,24.23
2022-09-30T15:31:21.587Z,24.26
2022-09-30T15:36:29.100Z,24.27
2022-09-30T15:41:36.192Z,24.29
2022-09-30T15:46:43.422Z,24.31
2022-09-30T15:51:50.680Z,24.33
2022-09-30T15:56:57.834Z,24.36
2022-09-30T16:02:05.664Z,24.38
2022-09-30T16:07:12.851Z,24.43
2022-09-30T16:12:20.121Z,24.43
2022-09-30T16:17:27.331Z,24.48
2022-09-30T16:22:34.697Z,24.49
2022-09-30T16:27:41.935Z,24.53
2022-09-30T16:32:49.062Z,24.55
2022-09-30T16:37:56.295Z,24.53
2022-09-30T16:43:07.332Z,24.53
2022-09-30T16:48:10.853Z,24.60
2022-09-30T16:53:18.142Z,24.66
2022-09-30T16:58:25.372Z,24.72
2022-09-30T17:03:32.686Z,24.81
2022-09-30T17:08:39.924Z,24.82
2022-09-30T17:13:47.144Z,24.81
2022-09-30T17:18:54.691Z,24.83
2022-09-30T17:24:02.498Z,24.78
2022-09-30T17:29:30.943Z,24.82
2022-09-30T17:34:17.036Z,24.81
2022-09-30T17:39:24.265Z,24.79
2022-09-30T17:44:31.447Z,24.78
2022-09-30T17:49:39.451Z,24.76
2022-09-30T17:54:51.162Z,24.71
2022-09-30T17:59:53.810Z,24.70
2022-09-30T18:05:01.060Z,24.73
2022-09-30T18:10:08.603Z,24.78
2022-09-30T18:15:15.956Z,24.82
2022-09-30T18:20:25.437Z,24.84
2022-09-30T18:25:30.446Z,24.85
2022-09-30T18:30:37.691Z,24.90
2022-09-30T18:35:44.945Z,24.96
2022-09-30T18:40:52.168Z,24.99
2022-09-30T18:45:59.429Z,25.00
2022-09-30T18:51:06.545Z,25.00
2022-09-30T18:56:13.777Z,24.97
2022-09-30T19:01:21.168Z,24.99
2022-09-30T19:06:28.179Z,25.06
2022-09-30T19:11:35.995Z,25.06
2022-09-30T19:16:43.664Z,25.06
2022-09-30T19:21:50.747Z,25.01
2022-09-30T19:26:58.054Z,25.01
2022-09-30T19:32:05.489Z,25.00
2022-09-30T19:37:25.194Z,24.97
2022-09-30T19:42:20.808Z,24.97
2022-09-30T19:47:32.303Z,24.96
2022-09-30T19:52:36.035Z,24.94
2022-09-30T19:57:42.316Z,24.93
2022-09-30T20:02:49.753Z,24.92
2022-09-30T20:07:57.567Z,24.95
2022-09-30T20:13:04.984Z,24.94
2022-09-30T20:18:12.233Z,24.94
2022-09-30T20:23:19.524Z,24.93
2022-09-30T20:28:26.804Z,24.91
2022-09-30T20:33:33.911Z,24.92
2022-09-30T20:38:41.115Z,24.89
2022-09-30T20:43:48.449Z,24.93
2022-09-30T20:48:55.514Z,24.94
2022-09-30T20:54:02.664Z,24.97
2022-09-30T20:59:09.912Z,24.97
2022-09-30T21:04:17.062Z,25.00
2022-09-30T21:09:24.276Z,25.01
2022-09-30T21:14:31.493Z,25.02
2022-09-30T21:19:38.678Z,24.99
2022-09-30T21:24:45.846Z,24.99
2022-09-30T21:29:53.150Z,25.03
2022-09-30T21:35:00.356Z,25.07
2022-09-30T21:40:07.530Z,25.12
2022-09-30T21:45:14.692Z,25.14
2022-09-30T21:50:21.912Z,25.13
2022-09-30T21:55:29.115Z,25.16
2022-09-30T22:00:36.315Z,25.21
2022-09-30T22:05:43.516Z,25.24
2022-09-30T22:10:50.727Z,25.28
2022-09-30T22:15:58.440Z,25.30
2022-09-30T22:21:05.634Z,25.36
2022-09-30T22:26:12.818Z,25.40
2022-09-30T22:31:20.133Z,25.39
2022-09-30T22:36:27.222Z,25.40
2022-09-30T22:41:34.828Z,25.41
2022-09-30T22:46:41.682Z,25.44
2022-09-30T22:51:48.861Z,25.42
2022-09-30T22:56:56.060Z,25.41
2022-09-30T23:02:03.372Z,25.44
2022-09-30T23:07:10.499Z,25.44
2022-09-30T23:12:17.670Z,25.48
2022-09-30T23:17:24.854Z,25.48
2022-09-30T23:22:32.025Z,25.47
2022-09-30T23:27:39.179Z,25.49
2022-09-30T23:32:46.818Z,25.48
2022-09-30T23:37:54.006Z,25.47
2022-09-30T23:43:01.174Z,25.44
2022-09-30T23:48:08.416Z,25.39
2022-09-30T23:53:15.602Z,25.41
2022-09-30T23:58:22.812Z,25.37
